Type in a Steem user's name to view a breakdown of their voting activity.
Data is currently available for 48088 active accounts.
Data period: 08-07-2019 - 13-07-2019.

rikrd3
Vote Rank #: 8879
Score: 63.2133
% of Self-Votes: 0%
Top Category: palnet (25)

Steem Power: 3.32
+ Delegated IN: 0
- Delegated OUT: 0
Effective SP: 3.32
Vote Counts
# Accounts Voted For34
Up-Votes Made54
Down-Votes Made0
Vote Values
Total Value of Votes Made (SBD)$0.001
Vote Value To Authors - inc. Self-Votes (SBD)$0.001
Vote Value to Curators (SBD)$0
Value of Self-Votes (SBD)$0
Value of Votes for Others (SBD)$0.001
Reputations Voted For
0-25 Rep. Accounts Voted For0 (0%)
25-50 Rep. Accounts Voted For0 (0%)
50-75 Rep. Accounts Voted For53 (98.15%)
75+ Rep. Accounts Voted For1 (1.85%)
Categories Voted ForVotes CastVote Value (SBD)

Votes Made By This Account For Posts & Comments

Timestamp
(Click to View Post/Comment)
AuthorCategoriesNET # of Votes (+/-)Total Payout (SBD)This Vote's Payout %Value To Author (SBD)Value To Curators (SBD)Vote Value (SBD)Author Reputation
12019-07-13 05:28:54@celfditorialcelfmagazine, arte, cervantes, palnet, neoxian84$2.0190%$0$0$057.803
22019-07-13 05:28:51@votomasivoblog, community, steempress, neoxian, palnet43$1.9980%$0$0$054.601
32019-07-13 03:45:21@celfditorialcelfmagazine, art, neoxian, palnet, fundition-co4oqxq1w88$6.8420%$0$0$057.803
42019-07-13 01:27:33@hiddenbladeart, artzone, palnet, drawing, happyblade180$54.970%$0$0$065.605
52019-07-12 23:34:48@the.curatorshare2steem168$0.3270.01%$0$0$062.608
62019-07-12 20:37:27@udezeeneoxian, steemleo, palnet, investment, nigeria32$2.4190%$0$0$063.146
72019-07-12 20:10:03@kadoshmenorahspanish, cervantes, arte, tutoriales, palnet420$1.4470%$0$0$059.402
82019-07-12 19:42:06@juanmanuellopez1musicavenezolana, music, entropia, cervantes, palnet229$0.1880.01%$0$0$055.824
92019-07-12 19:28:27@votomasivoblog, community, steempress, neoxian, palnet56$2.0260%$0$0$054.601
102019-07-12 17:01:54@repollosteempress, repollo, curation, investment, upvote140$1.9830%$0$0$065.121
112019-07-12 16:20:21@celfmagazinecelfmagazine, art, culture, curation, community150$2.1020%$0$0$065.775
122019-07-12 14:06:12@templocuration, spanish, steempress, templo363$6.8620%$0$0$067.059
132019-07-12 06:57:03@volcandemorcillaspanish, cervantes, fotografia, naturaleza, viajes350$1.3590%$0$0$062.217
142019-07-12 02:52:42@mcoinz79seven77, palnet, actnearn, share2steem, steemleo399$2.0490%$0$0$066.419
152019-07-12 02:20:33@neoxianpalnet, bankofneoxian, neoxian182$2.350%$0$0$069.967
162019-07-11 22:21:21@robbieallenartart, painting, fineart, artist, steepshot57$0.0770.03%$0$0$056.504
172019-07-11 20:01:21@manuelgil64steempress, spanish, cervantes, musica, palnet411$0.7640%$0$0$058.979
182019-07-11 19:54:06@sandykatiuskaspanish, cervantes, literatura, reflexion, entropia212$1.2860%$0$0$057.239
192019-07-11 19:24:54@merryslambcervantes, comida, planet, spanish, steempress366$3.0260%$0$0$058.738
202019-07-11 19:10:45@celfditorialcelfmagazine, arte, neoxian, palnet, cervantes102$2.0580%$0$0$057.803
212019-07-11 17:00:00@repollosteempress, repollo, curation, investment, upvote139$2.0140%$0$0$065.121
222019-07-11 13:52:18@templocuration, spanish, steempress, templo227$3.9120%$0$0$067.059
232019-07-11 07:15:48@volcandemorcillaspanish, cervantes, fotografia, viajes, phototalent483$1.1550%$0$0$062.217
242019-07-11 04:37:06@sevillaespinomarketcap, palnet327$5.0020%$0$0$066.049
252019-07-11 03:29:06@celfditorialcelfmagazine, art, neoxian, palnet, fundition-co4oqxq1w102$0.5070%$0$0$057.803
262019-07-11 00:17:12@anasuleidyconstelacion, food, spanish, busy, kryptonia111$0.2130.01%$0$0$057.053
272019-07-10 23:06:54@richjrspanish, cervantes, arte, art, anime508$1.1320%$0$0$058.643
282019-07-10 20:24:09@alejandrobonsdtube, cervantes, music, art, spanish249$1.240%$0$0$052.336
292019-07-10 20:20:12@lionsaturbixspanish, cervante, arte, palnet, illustration419$0.8410%$0$0$053.776
302019-07-10 17:21:33@javyeslava.photospanish, cervantes, fotografia, steempress, naturaleza186$0.3690.01%$0$0$060.248
312019-07-10 17:08:45@leotrapdtube, vlog, steem, fundition-yk7w46cpo, promo-steem178$15.0820%$0$0$072.126
322019-07-10 16:23:21@repollosteempress, repollo, curation, investment, upvote306$5.5820%$0$0$065.121
332019-07-10 13:40:03@templocuration, spanish, steempress, templo227$4.0340%$0$0$067.059
342019-07-10 12:27:42@celfditorialcelfmagazine, arte, cultura, palnet, neoxian248$5.6440%$0$0$057.803
352019-07-10 03:56:09@votomasivoblog, community, steempress, palnet, neoxian49$2.1450%$0$0$054.601
362019-07-10 01:40:45@celfmagazinecelfmagazine, art, culture, curation, community118$2.1770%$0$0$065.775
372019-07-09 23:55:00@mayvilspanish, cervantes, videojuegos, vidapersonal, castellano, partiko499$1.2070%$0$0$061.166
382019-07-09 23:54:36@mayvilspanish, cervantes, disney, pelĂ­culas, writing, partiko417$0.1330.02%$0$0$061.166
392019-07-09 23:53:57@mayvilspanish, cervantes, comida, fotografia, castellano439$0.7390%$0$0$061.166
402019-07-09 23:32:15@neoxiansteemleo, neoxian, tribe, palnet881$6.5190%$0$0$069.967
412019-07-09 16:04:06@repollosteempress, repollo, curation, investment, upvote139$2.1930%$0$0$065.121
422019-07-09 12:58:51@connor-russoart, spanish, cervantes, curie, life1107$13.5610%$0$0$059.381
432019-07-09 12:55:09@adrian11spanish, cervantes, literatura, relatoseroticos, castellano274$2.3970%$0$0$053.674
442019-07-09 12:54:15@helengutierspanish, cervantes, retotop10, castellano, actualidad331$1.7690%$0$0$053.512
452019-07-09 12:52:15@janettyanezbloque64, tecnologia, cervantes, palnet, blockchain150$0.1890.02%$0$0$055.527
462019-07-09 12:50:18@eliassethspanish, cervantes, castellano, entropia, palnet276$1.1240%$0$0$058.046
472019-07-09 06:49:51@volcandemorcillaspanish, cervantes, fotografia, naturaleza, phototalent320$3.9610%$0$0$062.217
482019-07-09 04:30:54@sevillaespinomarketcap, palnet293$5.3090%$0$0$066.049
492019-07-09 04:15:42@camiloferruaactifit, neoxian, palnet, blog, life87$1.1020%$0$0$066.788
502019-07-09 04:15:36@zakuneoxian, steemleo, palnet, tribe, steem-engine525$47.6830%$0$0$079.734
512019-07-09 02:50:42@team-mexicocastellano, curation, mexico, palnet, team-mexico100$0.8190%$0$0$056.797
522019-07-09 00:31:24@sydewalkashare2steem, sct, palnet, steemstem, theluvbug101$0.3430.01%$0$0$053.076
532019-07-08 15:29:33@repollosteempress, repollo, curation, investment, upvote131$1.3280%$0$0$065.121
542019-07-08 13:32:27@templocuration, spanish, steempress, templo219$4.0220%$0$0$067.059